Time;durP1;ratioP1;P1;durP2;ratioP2;P2;SDS_P1;SDS_P2;PMS_P1;PMS_P2;Temp;Humidity;BMP_temperature;BMP_pressure;BME280_temperature;BME280_humidity;BME280_pressure;Samples;Min_cycle;Max_cycle;Signal;HPM_P1;HPM_P2
2022/07/08 00:02:39;;;;;;;2.10;1.90;;;14.00;99.90;15.00;97169.00;;;;5039101;28;20205;-72
2022/07/08 00:05:28;;;;;;;4.37;2.53;;;13.90;99.90;15.00;97167.00;;;;5045413;28;20197;-73
2022/07/08 00:08:18;;;;;;;6.57;2.40;;;13.90;99.90;15.20;97173.00;;;;5046995;28;20672;-73
2022/07/08 00:11:08;;;;;;;3.50;1.83;;;13.90;99.90;15.10;97169.00;;;;5047998;28;20212;-73
2022/07/08 00:13:57;;;;;;;6.00;2.13;;;13.90;99.90;15.50;97179.00;;;;5038842;28;20197;-74
2022/07/08 00:16:46;;;;;;;2.60;1.93;;;14.00;99.90;15.60;97174.00;;;;5037863;28;20209;-74
2022/07/08 00:19:35;;;;;;;2.23;2.03;;;14.10;99.90;15.70;97178.00;;;;5045963;28;20235;-74
2022/07/08 00:22:24;;;;;;;1.77;1.40;;;14.10;99.90;15.60;97176.00;;;;5047400;28;20213;-73
2022/07/08 00:25:12;;;;;;;1.83;1.73;;;14.20;99.90;15.80;97176.00;;;;5044647;28;20200;-73
2022/07/08 00:28:03;;;;;;;2.23;2.03;;;14.20;99.90;15.90;97184.00;;;;5045238;28;20192;-74
2022/07/08 00:30:51;;;;;;;2.10;1.90;;;14.30;99.90;15.90;97180.00;;;;5048155;28;20228;-73
2022/07/08 00:33:40;;;;;;;4.07;2.17;;;14.30;99.90;15.90;97185.00;;;;5047676;28;20196;-73
2022/07/08 00:36:29;;;;;;;2.77;1.90;;;14.40;99.90;15.60;97187.00;;;;5038158;28;20679;-73
2022/07/08 00:39:18;;;;;;;2.23;1.47;;;14.40;99.90;15.40;97183.00;;;;5046350;28;20223;-74
2022/07/08 00:42:07;;;;;;;1.73;1.63;;;14.30;99.90;15.20;97192.00;;;;5047410;28;20220;-73
2022/07/08 00:44:57;;;;;;;4.60;2.10;;;14.20;99.90;15.40;97190.00;;;;5046957;28;20196;-73
2022/07/08 00:47:47;;;;;;;1.60;1.50;;;14.20;99.90;15.40;97190.00;;;;5044351;28;20200;-73
2022/07/08 00:50:36;;;;;;;3.53;1.83;;;14.20;99.90;15.60;97194.00;;;;5047225;28;20229;-73
2022/07/08 00:53:25;;;;;;;5.43;1.70;;;14.20;99.90;15.60;97191.00;;;;5046680;28;20205;-74
2022/07/08 00:56:13;;;;;;;3.10;1.67;;;14.20;99.90;15.50;97196.00;;;;5047027;28;20295;-73
2022/07/08 00:59:02;;;;;;;2.27;1.70;;;14.20;99.90;15.70;97188.00;;;;5038126;28;20224;-73
2022/07/08 01:01:53;;;;;;;1.70;1.60;;;14.20;99.90;15.60;97188.00;;;;5045447;28;20227;-73
2022/07/08 01:04:42;;;;;;;2.07;1.87;;;14.20;99.90;15.50;97186.00;;;;5047205;28;20270;-73
2022/07/08 01:07:31;;;;;;;1.97;1.87;;;14.20;99.90;15.40;97171.00;;;;5047121;28;20220;-74
2022/07/08 01:10:20;;;;;;;3.10;2.17;;;14.20;99.90;15.30;97164.00;;;;5046036;28;20231;-74
2022/07/08 01:13:09;;;;;;;1.93;1.80;;;14.20;99.90;15.50;97170.00;;;;5040687;28;20203;-74
2022/07/08 01:15:58;;;;;;;1.97;1.53;;;14.10;99.90;15.70;97170.00;;;;5050132;28;20241;-73
2022/07/08 01:18:48;;;;;;;4.13;1.70;;;14.20;99.90;15.40;97174.00;;;;5049125;28;20217;-73
2022/07/08 01:21:38;;;;;;;6.00;1.87;;;14.20;99.90;15.20;97171.00;;;;5050099;28;20210;-74
2022/07/08 01:24:27;;;;;;;1.80;1.70;;;14.10;99.90;15.10;97176.00;;;;5042411;28;20208;-73
2022/07/08 01:27:16;;;;;;;3.80;1.80;;;14.10;99.90;15.20;97179.00;;;;5043221;28;20235;-73
2022/07/08 01:30:07;;;;;;;1.87;1.50;;;14.10;99.90;15.50;97181.00;;;;5045936;28;20235;-73
2022/07/08 01:32:55;;;;;;;2.37;1.83;;;14.10;99.90;15.40;97182.00;;;;5042676;28;20204;-74
2022/07/08 01:35:45;;;;;;;2.40;1.77;;;14.10;99.90;15.40;97176.00;;;;5040872;28;20203;-73
2022/07/08 01:38:36;;;;;;;1.77;1.67;;;14.10;99.90;15.30;97183.00;;;;5048218;28;20744;-73
2022/07/08 01:41:24;;;;;;;3.60;1.80;;;14.10;99.90;15.00;97183.00;;;;5050018;28;20204;-73
2022/07/08 01:44:13;;;;;;;2.23;2.03;;;14.00;99.90;15.00;97184.00;;;;5048292;28;20303;-73
2022/07/08 01:47:02;;;;;;;2.03;1.93;;;14.00;99.90;15.30;97187.00;;;;5046101;28;20200;-73
2022/07/08 01:49:51;;;;;;;2.77;1.90;;;14.00;99.90;15.50;97176.00;;;;5048880;28;20232;-72
2022/07/08 01:52:40;;;;;;;1.90;1.80;;;14.00;99.90;15.60;97181.00;;;;5049760;28;20207;-73
2022/07/08 01:55:30;;;;;;;2.70;1.70;;;14.10;99.90;15.20;97183.00;;;;5042709;28;20211;-73
2022/07/08 01:58:19;;;;;;;2.23;2.03;;;14.00;99.90;15.30;97187.00;;;;5039351;28;20197;-72
2022/07/08 02:01:07;;;;;;;1.67;1.57;;;14.10;99.90;15.20;97183.00;;;;5048026;28;20200;-73
2022/07/08 02:03:56;;;;;;;1.43;1.33;;;14.10;99.90;15.20;97179.00;;;;5047777;28;20204;-73
2022/07/08 02:06:45;;;;;;;3.03;2.83;;;14.10;99.90;15.30;97187.00;;;;5049585;28;20205;-74
2022/07/08 02:09:35;;;;;;;2.70;1.83;;;14.10;99.90;15.40;97189.00;;;;5048078;28;20704;-74
2022/07/08 02:12:26;;;;;;;4.20;1.63;;;14.10;99.90;15.60;97187.00;;;;5048806;28;20722;-73
2022/07/08 02:15:14;;;;;;;4.13;1.70;;;14.10;99.90;15.70;97189.00;;;;5049226;28;20228;-73
2022/07/08 02:18:03;;;;;;;1.50;1.40;;;14.20;99.90;15.70;97191.00;;;;5041751;28;20215;-73
2022/07/08 02:20:52;;;;;;;1.83;1.73;;;14.20;99.90;15.50;97181.00;;;;5048806;28;20238;-73
2022/07/08 02:23:41;;;;;;;1.80;1.50;;;14.20;99.90;15.50;97187.00;;;;5048754;28;20200;-73
2022/07/08 02:26:30;;;;;;;1.87;1.77;;;14.20;99.90;15.70;97182.00;;;;5044093;28;20211;-73
2022/07/08 02:29:20;;;;;;;2.20;2.00;;;14.20;99.90;15.70;97189.00;;;;5040370;28;20228;-74
2022/07/08 02:32:10;;;;;;;2.30;1.53;;;14.30;99.90;15.80;97184.00;;;;5049481;28;20224;-74
2022/07/08 02:34:59;;;;;;;4.83;1.90;;;14.30;99.90;15.80;97183.00;;;;5048986;28;20217;-73
2022/07/08 02:37:48;;;;;;;3.00;1.43;;;14.30;99.90;15.80;97179.00;;;;5048134;28;20203;-73
2022/07/08 02:40:36;;;;;;;1.77;1.60;;;14.30;99.90;15.80;97178.00;;;;5049759;28;20593;-74
2022/07/08 02:43:25;;;;;;;1.60;1.50;;;14.30;99.90;15.70;97178.00;;;;5048446;28;20197;-73
2022/07/08 02:46:15;;;;;;;1.90;1.60;;;14.40;99.90;15.40;97182.00;;;;5048675;28;20208;-73
2022/07/08 02:49:04;;;;;;;1.93;1.73;;;14.30;99.90;15.20;97179.00;;;;5047086;28;20282;-73
2022/07/08 02:51:53;;;;;;;1.67;1.57;;;14.20;99.90;15.30;97179.00;;;;5049469;28;20225;-73
2022/07/08 02:54:42;;;;;;;1.37;1.27;;;14.10;99.90;15.40;97183.00;;;;5046990;28;20204;-74
2022/07/08 02:57:30;;;;;;;2.53;1.70;;;14.10;99.90;15.50;97188.00;;;;5047615;28;20208;-73
2022/07/08 03:00:19;;;;;;;1.73;1.63;;;14.10;99.90;15.60;97190.00;;;;5048777;28;20226;-74
2022/07/08 03:03:09;;;;;;;1.57;1.47;;;14.10;99.90;15.60;97186.00;;;;5046222;28;20660;-74
2022/07/08 03:05:58;;;;;;;1.53;1.43;;;14.10;99.90;15.50;97195.00;;;;5048062;28;20189;-73
2022/07/08 03:08:47;;;;;;;1.70;1.60;;;14.10;99.90;15.60;97185.00;;;;5047595;28;20642;-74
2022/07/08 03:11:36;;;;;;;2.40;1.53;;;14.10;99.90;15.60;97196.00;;;;5041766;28;20220;-73
2022/07/08 03:14:25;;;;;;;1.67;1.50;;;14.10;99.90;15.60;97194.00;;;;5048438;28;20210;-73
2022/07/08 03:17:13;;;;;;;1.40;1.30;;;14.10;99.90;15.40;97208.00;;;;5048245;28;20692;-73
2022/07/08 03:20:05;;;;;;;2.10;1.90;;;14.10;99.90;15.00;97202.00;;;;5044632;28;20216;-73
2022/07/08 03:22:54;;;;;;;1.63;1.53;;;14.00;99.90;15.00;97213.00;;;;5046759;28;20200;-73
2022/07/08 03:25:43;;;;;;;1.67;1.57;;;13.90;99.90;14.80;97211.00;;;;5045623;28;20219;-73
2022/07/08 03:28:31;;;;;;;2.33;1.40;;;13.80;99.90;14.90;97219.00;;;;5041488;28;20905;-73
2022/07/08 03:31:21;;;;;;;1.70;1.60;;;13.80;99.90;15.20;97216.00;;;;5044916;28;20224;-74
2022/07/08 03:34:09;;;;;;;1.33;1.23;;;13.80;99.90;15.40;97215.00;;;;5041911;28;20697;-73
2022/07/08 03:37:00;;;;;;;1.73;1.57;;;13.90;99.90;15.50;97213.00;;;;5045824;28;20201;-73
2022/07/08 03:39:50;;;;;;;1.83;1.57;;;13.90;99.90;15.30;97210.00;;;;5041413;28;20220;-73
2022/07/08 03:42:38;;;;;;;3.37;1.70;;;13.90;99.90;14.80;97205.00;;;;5038910;28;20204;-74
2022/07/08 03:45:27;;;;;;;3.23;1.63;;;13.90;99.90;14.60;97207.00;;;;5039552;28;20211;-73
2022/07/08 03:48:16;;;;;;;2.83;1.83;;;13.80;99.90;14.60;97203.00;;;;5046543;28;20267;-73
2022/07/08 03:51:05;;;;;;;2.03;1.80;;;13.70;99.90;14.60;97211.00;;;;5046699;28;20749;-73
2022/07/08 03:53:55;;;;;;;3.93;1.90;;;13.60;99.90;14.60;97205.00;;;;5047914;28;20623;-73
2022/07/08 03:56:44;;;;;;;2.37;1.73;;;13.60;99.90;14.70;97213.00;;;;5041815;28;20203;-74
2022/07/08 03:59:33;;;;;;;2.20;1.60;;;13.60;99.90;14.60;97201.00;;;;5043704;28;20224;-73
2022/07/08 04:02:24;;;;;;;2.13;1.50;;;13.60;99.90;14.90;97210.00;;;;5041641;28;20696;-73
2022/07/08 04:05:13;;;;;;;2.77;1.80;;;13.60;99.90;15.30;97210.00;;;;5045734;28;20197;-74
2022/07/08 04:08:02;;;;;;;2.00;1.77;;;13.70;99.90;15.30;97216.00;;;;5045635;28;20200;-73
2022/07/08 04:10:52;;;;;;;1.67;1.57;;;13.80;99.90;15.30;97207.00;;;;5060641;23;20770;-66
2022/07/08 04:13:41;;;;;;;1.40;1.30;;;13.80;99.90;15.40;97211.00;;;;5040455;28;20219;-66
2022/07/08 04:16:30;;;;;;;1.77;1.50;;;13.90;99.90;15.70;97217.00;;;;5039329;28;20208;-66
2022/07/08 04:19:19;;;;;;;1.63;1.53;;;14.00;99.90;15.50;97221.00;;;;5041281;28;20700;-66
2022/07/08 04:22:07;;;;;;;2.67;1.70;;;14.10;99.90;15.50;97220.00;;;;5032832;28;20209;-66
2022/07/08 04:24:56;;;;;;;3.07;2.13;;;14.10;99.90;15.60;97220.00;;;;5035820;28;20197;-65
2022/07/08 04:27:46;;;;;;;2.10;1.33;;;14.20;99.90;15.20;97222.00;;;;5044461;28;20720;-67
2022/07/08 04:30:35;;;;;;;1.70;1.33;;;14.20;99.90;15.10;97241.00;;;;5047919;28;20213;-65
2022/07/08 04:33:24;;;;;;;7.73;2.00;;;14.10;99.90;14.90;97231.00;;;;5046041;28;20205;-62
2022/07/08 04:36:13;;;;;;;2.20;2.00;;;14.10;99.90;14.70;97226.00;;;;5045847;28;20207;-65
2022/07/08 04:39:02;;;;;;;1.77;1.67;;;13.90;99.90;14.80;97228.00;;;;5035146;28;20215;-65
2022/07/08 04:41:50;;;;;;;1.70;1.50;;;13.90;99.90;14.70;97223.00;;;;5047484;28;20208;-67
2022/07/08 04:44:41;;;;;;;1.80;1.57;;;13.90;99.90;15.20;97238.00;;;;5047702;28;20200;-64
2022/07/08 04:47:29;;;;;;;2.67;1.53;;;13.90;99.90;15.40;97244.00;;;;5043017;28;20208;-66
2022/07/08 04:50:18;;;;;;;2.03;1.30;;;14.00;99.90;15.70;97252.00;;;;5041353;28;20223;-66
2022/07/08 04:53:07;;;;;;;2.57;1.30;;;14.10;99.90;15.90;97260.00;;;;5050441;28;20232;-66
2022/07/08 04:55:56;;;;;;;2.30;2.10;;;14.20;99.90;15.60;97246.00;;;;5045651;28;20194;-67
2022/07/08 04:58:45;;;;;;;4.40;1.80;;;14.30;99.90;15.50;97247.00;;;;5034536;28;20201;-65
2022/07/08 05:01:35;;;;;;;1.83;1.47;;;14.20;99.90;15.60;97240.00;;;;5043183;28;20197;-65
2022/07/08 05:04:24;;;;;;;3.83;1.27;;;14.30;99.90;16.00;97263.00;;;;5051789;28;20200;-65
2022/07/08 05:07:13;;;;;;;3.13;1.30;;;14.30;99.90;15.60;97265.00;;;;5044392;28;20215;-64
2022/07/08 05:10:01;;;;;;;1.20;1.10;;;14.40;99.90;15.90;97275.00;;;;5048952;28;20237;-67
2022/07/08 05:12:50;;;;;;;1.70;1.30;;;14.40;99.90;16.00;97276.00;;;;5050036;28;20221;-65
2022/07/08 05:15:39;;;;;;;1.90;0.90;;;14.50;99.90;16.00;97286.00;;;;5043670;28;20205;-66
2022/07/08 05:18:29;;;;;;;2.53;1.17;;;14.50;99.90;16.20;97280.00;;;;5049916;28;20219;-65
2022/07/08 05:21:18;;;;;;;1.47;1.37;;;14.60;99.90;16.40;97286.00;;;;5050304;28;20200;-65
2022/07/08 05:24:08;;;;;;;0.70;0.70;;;14.70;99.90;16.00;97291.00;;;;5048882;28;20201;-65
2022/07/08 05:26:57;;;;;;;2.03;0.90;;;14.70;99.90;16.00;97300.00;;;;5046510;28;20219;-65
2022/07/08 05:29:46;;;;;;;1.23;1.13;;;14.70;99.90;16.30;97301.00;;;;5049869;28;20228;-65
2022/07/08 05:32:35;;;;;;;1.80;1.50;;;14.80;99.90;16.40;97306.00;;;;5045238;28;20225;-66
2022/07/08 05:35:26;;;;;;;1.10;0.87;;;14.80;99.90;16.30;97304.00;;;;5046490;28;20739;-65
2022/07/08 05:38:16;;;;;;;3.00;1.40;;;14.90;99.90;16.40;97296.00;;;;5048640;28;20195;-66
2022/07/08 05:41:05;;;;;;;4.57;4.03;;;14.90;99.90;16.50;97292.00;;;;5050733;28;20235;-67
2022/07/08 05:43:54;;;;;;;7.63;4.80;;;15.00;99.90;16.40;97295.00;;;;5038540;28;20223;-65
2022/07/08 05:46:43;;;;;;;4.87;3.73;;;15.10;99.90;16.60;97296.00;;;;5049165;28;20670;-67
2022/07/08 05:49:32;;;;;;;5.43;4.93;;;15.20;99.90;17.10;97290.00;;;;5039354;28;20232;-65
2022/07/08 05:52:22;;;;;;;3.37;2.53;;;15.40;99.90;17.10;97287.00;;;;5037648;28;20224;-65
2022/07/08 05:55:11;;;;;;;2.10;1.00;;;15.60;99.90;17.00;97295.00;;;;5041792;28;20197;-67
2022/07/08 05:58:00;;;;;;;0.83;0.83;;;15.80;99.90;17.70;97290.00;;;;5041266;28;20201;-65
2022/07/08 06:00:49;;;;;;;1.13;0.90;;;16.00;99.90;18.70;97296.00;;;;5045923;28;20770;-65
2022/07/08 06:03:37;;;;;;;5.40;1.60;;;16.30;99.90;19.30;97309.00;;;;5049743;28;20209;-65
2022/07/08 06:06:26;;;;;;;1.63;1.43;;;16.70;99.90;19.80;97309.00;;;;5037872;28;20212;-65
2022/07/08 06:09:16;;;;;;;0.63;0.63;;;17.10;99.90;19.90;97318.00;;;;5048623;28;20220;-65
2022/07/08 06:12:07;;;;;;;0.50;0.50;;;17.40;99.90;20.20;97309.00;;;;5048770;28;20232;-65
2022/07/08 06:14:56;;;;;;;0.60;0.53;;;17.80;99.90;20.60;97312.00;;;;5049662;28;20211;-65
2022/07/08 06:17:45;;;;;;;0.73;0.40;;;18.10;99.90;20.40;97315.00;;;;5043897;28;20211;-66
2022/07/08 06:20:33;;;;;;;0.90;0.50;;;18.30;99.90;20.70;97319.00;;;;5047514;28;20713;-66
2022/07/08 06:23:22;;;;;;;1.07;0.40;;;18.60;99.90;20.40;97321.00;;;;5047213;28;20200;-66
2022/07/08 06:26:12;;;;;;;0.70;0.50;;;18.70;99.90;21.00;97314.00;;;;5045537;28;20204;-65
2022/07/08 06:29:01;;;;;;;1.07;0.37;;;18.90;99.90;21.60;97318.00;;;;5042251;28;20219;-65
2022/07/08 06:31:50;;;;;;;0.20;0.20;;;19.20;99.90;21.70;97336.00;;;;5033202;28;20208;-65
2022/07/08 06:34:39;;;;;;;0.30;0.30;;;19.40;99.90;21.00;97355.00;;;;5033143;28;20215;-65
2022/07/08 06:37:27;;;;;;;1.37;0.30;;;19.40;99.90;20.40;97352.00;;;;5040051;28;20224;-67
2022/07/08 06:40:16;;;;;;;0.30;0.30;;;19.20;99.90;20.60;97360.00;;;;5047716;28;20232;-67
2022/07/08 06:43:06;;;;;;;0.40;0.30;;;19.10;99.90;20.50;97370.00;;;;5047461;28;20197;-67
2022/07/08 06:45:55;;;;;;;0.30;0.30;;;18.90;99.90;20.20;97361.00;;;;5047634;28;20197;-66
2022/07/08 06:48:44;;;;;;;0.50;0.40;;;18.80;99.90;20.20;97358.00;;;;5040786;28;20705;-66
2022/07/08 06:51:33;;;;;;;0.60;0.30;;;18.80;99.90;19.70;97368.00;;;;5029682;28;20712;-65
2022/07/08 06:54:37;;;;;;;0.40;0.30;;;18.60;99.90;20.30;97376.00;;;;5029162;28;20203;-65
2022/07/08 06:57:26;;;;;;;0.30;0.30;;;18.60;99.90;20.10;97369.00;;;;5049488;28;20849;-66
2022/07/08 07:00:17;;;;;;;0.30;0.30;;;18.70;99.90;20.20;97363.00;;;;5050153;28;20731;-66
2022/07/08 07:03:07;;;;;;;0.53;0.53;;;18.70;99.90;20.80;97372.00;;;;5049164;28;20200;-66
2022/07/08 07:05:56;;;;;;;0.40;0.40;;;18.80;99.90;21.10;97369.00;;;;5040042;28;20305;-66
2022/07/08 07:08:46;;;;;;;0.40;0.40;;;19.00;99.90;20.30;97367.00;;;;5031227;28;20216;-67
2022/07/08 07:11:35;;;;;;;1.00;0.63;;;19.00;99.90;21.20;97371.00;;;;5043758;28;20201;-65
2022/07/08 07:14:24;;;;;;;0.70;0.37;;;19.10;99.90;21.30;97368.00;;;;5048784;28;20227;-66
2022/07/08 07:17:19;;;;;;;0.30;0.30;;;19.30;99.90;21.00;97359.00;;;;5040514;28;20223;-67
2022/07/08 07:20:10;;;;;;;0.40;0.40;;;19.30;99.90;20.80;97364.00;;;;5045188;28;20264;-65
2022/07/08 07:22:59;;;;;;;0.73;0.70;;;19.40;99.90;21.10;97374.00;;;;5048744;28;20215;-66
2022/07/08 07:25:48;;;;;;;0.27;0.20;;;19.40;99.90;21.50;97376.00;;;;5038537;28;20209;-64
2022/07/08 07:28:37;;;;;;;0.20;0.20;;;19.50;99.90;21.90;97364.00;;;;5035779;28;20196;-65
2022/07/08 07:31:26;;;;;;;0.20;0.17;;;19.60;99.90;22.20;97350.00;;;;5049660;28;20642;-65
2022/07/08 07:34:16;;;;;;;0.37;0.30;;;19.90;99.90;22.80;97354.00;;;;5048751;28;20630;-65
2022/07/08 07:37:07;;;;;;;0.20;0.13;;;20.20;99.90;22.60;97354.00;;;;5049173;28;20235;-66
2022/07/08 07:39:56;;;;;;;0.23;0.20;;;20.40;99.90;22.60;97345.00;;;;5049076;28;20220;-66
2022/07/08 07:42:45;;;;;;;0.70;0.20;;;20.60;99.90;23.10;97367.00;;;;5048554;28;20200;-65
2022/07/08 07:45:34;;;;;;;0.40;0.13;;;20.80;99.90;22.70;97367.00;;;;5047037;28;20678;-66
2022/07/08 07:48:22;;;;;;;0.20;0.10;;;21.00;99.90;22.70;97339.00;;;;5044188;28;20247;-67
2022/07/08 07:51:13;;;;;;;0.23;0.23;;;21.10;99.90;22.80;97330.00;;;;5027841;28;20213;-66
2022/07/08 07:54:02;;;;;;;0.20;0.10;;;21.10;99.90;23.10;97365.00;;;;5028539;28;20228;-65
2022/07/08 07:56:50;;;;;;;0.20;0.20;;;21.30;99.90;23.00;97364.00;;;;5045999;28;20574;-65
2022/07/08 07:59:40;;;;;;;0.27;0.20;;;21.30;99.90;22.30;97372.00;;;;5042714;28;20228;-63
2022/07/08 08:02:29;;;;;;;3.03;0.23;;;21.20;99.90;22.40;97377.00;;;;5042958;28;20553;-65
2022/07/08 08:05:18;;;;;;;0.20;0.10;;;21.00;99.90;21.70;97383.00;;;;5047319;28;20224;-64
2022/07/08 08:08:08;;;;;;;0.40;0.20;;;20.90;99.20;22.20;97379.00;;;;5036244;28;20204;-65
2022/07/08 08:10:57;;;;;;;0.40;0.20;;;20.70;99.90;22.20;97394.00;;;;5043330;28;20224;-67
2022/07/08 08:13:46;;;;;;;0.20;0.10;;;20.70;99.90;22.30;97394.00;;;;5028247;28;20251;-62
2022/07/08 08:16:35;;;;;;;1.90;0.20;;;20.70;99.90;22.10;97387.00;;;;5028247;28;20204;-64
2022/07/08 08:19:23;;;;;;;0.37;0.27;;;20.60;99.90;21.60;97394.00;;;;5036621;28;20240;-67
2022/07/08 08:22:12;;;;;;;0.30;0.30;;;20.50;99.20;20.40;97405.00;;;;5042119;28;20208;-62
2022/07/08 08:25:03;;;;;;;0.63;0.23;;;20.10;98.30;20.50;97362.00;;;;5044475;28;20200;-67
2022/07/08 08:27:52;;;;;;;0.30;0.20;;;20.00;99.20;20.90;97394.00;;;;5046054;28;20200;-65
2022/07/08 08:30:41;;;;;;;0.23;0.23;;;19.80;99.90;20.30;97393.00;;;;5047343;28;20746;-64
2022/07/08 08:33:30;;;;;;;0.20;0.20;;;19.70;99.90;20.70;97400.00;;;;5047855;28;20216;-63
2022/07/08 08:36:19;;;;;;;0.50;0.20;;;19.50;99.90;19.80;97403.00;;;;5049209;28;20226;-63
2022/07/08 08:39:08;;;;;;;0.40;0.30;;;19.30;99.90;20.70;97392.00;;;;5050747;28;20236;-65
2022/07/08 08:41:59;;;;;;;0.47;0.20;;;19.30;99.90;20.90;97404.00;;;;5046022;28;20215;-63
2022/07/08 08:44:50;;;;;;;0.30;0.30;;;19.30;99.90;21.40;97417.00;;;;5053678;28;20208;-64
2022/07/08 08:47:39;;;;;;;0.40;0.30;;;19.50;99.90;21.40;97419.00;;;;5051333;28;20208;-66
2022/07/08 08:53:44;;;;;;;1.40;0.33;;;19.80;99.90;22.00;97401.00;;;;5037503;28;20224;-64
2022/07/08 08:56:34;;;;;;;0.40;0.30;;;19.90;99.80;21.40;97420.00;;;;5050898;28;20213;-67
2022/07/08 08:59:24;;;;;;;0.77;0.40;;;20.00;98.70;20.50;97399.00;;;;5051959;28;20256;-67
2022/07/08 09:02:14;;;;;;;0.30;0.30;;;20.10;96.60;21.20;97377.00;;;;5050216;28;20683;-68
2022/07/08 09:05:03;;;;;;;0.50;0.50;;;20.20;97.00;22.00;97431.00;;;;5048396;28;20200;-64
2022/07/08 09:07:53;;;;;;;0.30;0.30;;;20.40;97.20;23.20;97428.00;;;;5054164;28;20204;-65
2022/07/08 09:10:42;;;;;;;0.93;0.40;;;20.70;97.20;22.60;97423.00;;;;5034443;28;20236;-65
2022/07/08 09:13:31;;;;;;;0.30;0.30;;;20.80;95.60;22.00;97432.00;;;;5054329;28;20226;-63
2022/07/08 09:16:24;;;;;;;0.50;0.50;;;20.90;94.40;22.60;97394.00;;;;5052390;28;20208;-63
2022/07/08 09:19:14;;;;;;;1.67;0.53;;;21.00;94.70;23.90;97415.00;;;;5043678;28;20220;-64
2022/07/08 09:22:08;;;;;;;0.70;0.60;;;21.40;94.90;23.30;97418.00;;;;5032405;28;20201;-67
2022/07/08 09:24:57;;;;;;;0.33;0.33;;;21.60;93.30;23.20;97436.00;;;;5041355;28;20205;-64
2022/07/08 09:27:46;;;;;;;0.40;0.40;;;21.60;92.40;23.40;97419.00;;;;5036255;28;20209;-64
2022/07/08 09:30:35;;;;;;;1.03;0.50;;;21.80;91.00;24.00;97408.00;;;;5043254;28;20626;-64
2022/07/08 09:33:26;;;;;;;0.87;0.60;;;22.00;90.80;23.70;97411.00;;;;5041041;28;20822;-63
2022/07/08 09:36:15;;;;;;;0.50;0.47;;;22.10;87.00;23.20;97411.00;;;;5044692;28;20203;-64
2022/07/08 09:39:07;;;;;;;0.50;0.47;;;22.10;81.60;23.60;97407.00;;;;5040865;28;20201;-63
2022/07/08 09:41:56;;;;;;;0.50;0.43;;;22.10;83.70;22.90;97398.00;;;;5031134;28;20213;-67
2022/07/08 09:44:53;;;;;;;0.83;0.50;;;22.10;80.30;22.30;97431.00;;;;5041123;28;20223;-68
2022/07/08 09:47:42;;;;;;;1.43;0.70;;;22.00;79.30;24.40;97425.00;;;;5033379;28;20212;-65
2022/07/08 09:50:39;;;;;;;1.43;0.60;;;22.20;83.10;23.60;97423.00;;;;5031236;28;20689;-65
2022/07/08 09:53:47;;;;;;;0.63;0.63;;;22.30;77.10;24.80;97427.00;;;;5028137;28;20236;-67
2022/07/08 09:56:36;;;;;;;3.60;0.60;;;22.60;78.50;22.60;97389.00;;;;5037341;28;20828;-69
2022/07/08 09:59:25;;;;;;;0.60;0.60;;;22.50;70.80;24.10;97409.00;;;;5023802;28;20602;-64
2022/07/08 10:02:15;;;;;;;0.30;0.30;;;22.50;73.40;23.20;97395.00;;;;5042041;28;20209;-67
2022/07/08 10:05:04;;;;;;;0.80;0.40;;;22.50;71.20;23.00;97428.00;;;;5044931;28;21078;-64
2022/07/08 10:07:54;;;;;;;0.40;0.40;;;22.40;71.00;23.70;97408.00;;;;5035645;28;20225;-65
2022/07/08 10:10:45;;;;;;;0.90;0.80;;;22.40;73.20;22.40;97409.00;;;;5035647;28;20239;-64
2022/07/08 10:13:35;;;;;;;0.70;0.67;;;22.20;69.20;24.70;97422.00;;;;5038273;28;20205;-64
2022/07/08 10:16:24;;;;;;;0.73;0.67;;;22.40;72.80;24.00;97412.00;;;;5032250;28;20304;-65
2022/07/08 10:19:17;;;;;;;1.57;0.80;;;22.60;72.00;23.80;97416.00;;;;5032367;28;20232;-65
2022/07/08 10:22:09;;;;;;;1.47;0.90;;;22.60;70.50;23.50;97430.00;;;;5051765;28;20211;-67
2022/07/08 10:25:02;;;;;;;1.47;0.70;;;22.60;72.50;22.50;97413.00;;;;5048836;28;20204;-64
2022/07/08 10:27:51;;;;;;;1.20;0.57;;;22.40;68.50;22.70;97417.00;;;;5042271;28;20211;-66
2022/07/08 10:30:51;;;;;;;2.20;0.47;;;22.10;71.30;23.40;97463.00;;;;5039625;28;20235;-63
2022/07/08 10:33:46;;;;;;;0.53;0.50;;;21.90;71.90;23.00;97429.00;;;;5040977;28;20219;-65
2022/07/08 10:36:46;;;;;;;1.87;0.70;;;21.80;70.00;23.40;97516.00;;;;5040435;28;20219;-65
2022/07/08 10:39:40;;;;;;;0.90;0.60;;;22.00;71.10;22.90;97479.00;;;;5034407;28;20607;-64
2022/07/08 10:42:31;;;;;;;0.70;0.70;;;21.70;73.10;22.80;97516.00;;;;5035527;28;20201;-66
2022/07/08 10:45:20;;;;;;;0.90;0.70;;;21.80;70.40;23.10;97421.00;;;;5037552;28;20221;-65
2022/07/08 10:48:09;;;;;;;0.97;0.50;;;21.80;72.60;22.10;97446.00;;;;5032841;28;20206;-68
2022/07/08 10:50:57;;;;;;;1.33;1.20;;;22.10;72.60;21.60;97532.00;;;;5029297;28;20221;-63
2022/07/08 10:53:58;;;;;;;2.03;0.70;;;21.20;71.10;23.00;97470.00;;;;5029494;28;20210;-67
2022/07/08 10:56:48;;;;;;;0.73;0.50;;;21.40;72.40;23.90;97454.00;;;;5031771;28;20846;-64
2022/07/08 10:59:39;;;;;;;1.23;0.50;;;21.80;73.40;24.20;97530.00;;;;5033903;28;20232;-64
2022/07/08 11:02:28;;;;;;;0.73;0.53;;;22.10;71.20;23.10;97447.00;;;;5038537;28;20255;-62
2022/07/08 11:05:38;;;;;;;2.07;0.67;;;22.00;70.10;24.00;97469.00;;;;5030619;28;20713;-64
2022/07/08 11:08:28;;;;;;;1.13;0.80;;;22.30;70.50;24.50;97461.00;;;;5029499;28;20996;-66
2022/07/08 11:11:17;;;;;;;0.50;0.50;;;22.60;71.20;25.00;97479.00;;;;5042850;28;20232;-66
2022/07/08 11:14:06;;;;;;;1.37;0.70;;;23.00;71.20;24.60;97467.00;;;;5036158;28;20197;-67
2022/07/08 11:16:58;;;;;;;3.20;0.50;;;23.00;69.40;24.20;97461.00;;;;5029265;28;20306;-64
2022/07/08 11:19:48;;;;;;;2.37;0.80;;;23.10;68.80;24.10;97464.00;;;;5039307;28;20236;-67
2022/07/08 11:22:40;;;;;;;0.50;0.40;;;23.20;69.10;24.30;97536.00;;;;5035690;28;20226;-65
2022/07/08 11:25:29;;;;;;;2.00;0.60;;;23.00;69.50;25.90;97525.00;;;;5038033;28;20203;-67
2022/07/08 11:28:22;;;;;;;2.40;1.00;;;23.30;69.00;26.50;97528.00;;;;5036364;28;20205;-65
2022/07/08 11:31:20;;;;;;;1.23;0.80;;;23.70;71.10;25.30;97469.00;;;;5037517;28;20204;-65
2022/07/08 11:34:21;;;;;;;0.93;0.70;;;23.80;68.10;23.60;97486.00;;;;5026085;28;20234;-64
2022/07/08 11:37:09;;;;;;;2.50;0.87;;;23.50;65.20;24.60;97473.00;;;;5031781;28;20704;-64
2022/07/08 11:39:59;;;;;;;1.00;0.77;;;23.50;66.60;25.00;97518.00;;;;5033967;28;20681;-68
2022/07/08 11:42:47;;;;;;;0.97;0.60;;;23.70;64.80;26.20;97475.00;;;;5031488;28;20193;-66
2022/07/08 11:45:40;;;;;;;4.60;0.70;;;23.90;67.10;26.30;97505.00;;;;5035963;28;20189;-64
2022/07/08 11:48:37;;;;;;;0.93;0.70;;;24.30;64.90;24.20;97480.00;;;;5038194;28;20201;-65
2022/07/08 11:51:31;;;;;;;0.87;0.60;;;24.00;60.00;24.70;97490.00;;;;5039919;28;20213;-67
2022/07/08 11:54:22;;;;;;;2.03;1.00;;;23.80;63.10;25.20;97482.00;;;;5036573;28;20201;-64
2022/07/08 11:57:11;;;;;;;1.63;0.73;;;23.70;63.50;24.70;97481.00;;;;5035487;28;20668;-66
2022/07/08 12:00:00;;;;;;;2.40;0.80;;;23.90;60.70;25.00;97488.00;;;;5032361;28;20228;-68
2022/07/08 12:02:49;;;;;;;1.33;0.70;;;23.80;61.50;26.10;97494.00;;;;5035743;28;20200;-68
2022/07/08 12:05:38;;;;;;;2.17;0.57;;;24.10;64.20;26.10;97490.00;;;;5033829;28;20734;-67
2022/07/08 12:08:28;;;;;;;3.77;2.20;;;24.40;60.80;27.40;97496.00;;;;5031264;28;20207;-65
2022/07/08 12:11:19;;;;;;;0.70;0.70;;;24.80;61.80;26.90;97499.00;;;;5036975;28;20209;-66
2022/07/08 12:14:10;;;;;;;1.10;0.90;;;25.00;62.50;28.10;97503.00;;;;5037400;28;20737;-66
2022/07/08 12:16:59;;;;;;;2.47;0.80;;;25.40;61.70;27.90;97495.00;;;;5033563;28;20209;-67
2022/07/08 12:19:48;;;;;;;1.33;0.90;;;25.80;59.30;27.80;97495.00;;;;5030438;28;20238;-65
2022/07/08 12:22:47;;;;;;;1.33;0.60;;;25.90;58.60;27.80;97510.00;;;;5039596;28;20218;-65
2022/07/08 12:25:53;;;;;;;2.43;0.67;;;26.00;58.70;26.80;97521.00;;;;5038517;28;20212;-65
2022/07/08 12:28:41;;;;;;;1.83;1.10;;;25.90;57.60;26.60;97494.00;;;;5037305;28;20600;-68
2022/07/08 12:31:41;;;;;;;2.37;0.67;;;25.80;56.60;25.40;97479.00;;;;5027565;28;20668;-66
2022/07/08 12:34:30;;;;;;;2.80;1.00;;;25.60;55.90;25.30;97474.00;;;;5032725;28;20218;-65
2022/07/08 12:37:21;;;;;;;0.80;0.67;;;25.40;57.20;27.70;97497.00;;;;5033231;28;20196;-65
2022/07/08 12:40:15;;;;;;;1.93;0.50;;;25.60;59.30;27.80;97496.00;;;;5034129;28;20585;-66